• Join FlightAware (Why Join?)
  • Login
  • US Flag 
02:04PM EDT


 

Airport Tracker/Info


-or-


 

Live Flight TrackerFlight Track Log ✈ ASQ5938 ✈ 27-Jun-2013 ✈ KORD - KIND

Flight Track Log - Related Links

Times and Time Zones

All times are in EDT time to prevent confusion due to time zone crossing. See the ASQ5938 flight status page for this flight to view local times or setup timezone preferences in your user account.

Time Position Orientation Groundspeed Altitude Reporting Facility
EDT Latitude Longitude Course Direction KTS MPH feet Rate Location/Type
09:24PM 41.9833 -87.8500 156° South 191 220 2,200  Level Chicago TRACON
09:25PM 41.9500 -87.7833 124° Southeast 241 277 4,700 1,380 Climbing Chicago TRACON
09:26PM 41.8667 -87.7667 172° South 294 338 5,000 120 Climbing Chicago TRACON
09:27PM 41.8022 -87.7794 188° South 290 334 5,000 540 Level Chicago Center
09:28PM 41.7206 -87.7831 182° South 293 337 6,200 1,980 Climbing Chicago Center
09:29PM 41.6378 -87.7894 183° South 297 342 9,100 2,760 Climbing Chicago Center
09:30PM 41.6100 -87.6333 156° South  Level Estimated
09:30PM 41.5444 -87.7142 149° Southeast 343 395 12,000  Level Chicago Center
09:32PM 41.4719 -87.6275 138° Southeast 347 399 13,000 480 Climbing Chicago Center
09:33PM 41.3892 -87.5667 151° Southeast 348 400 13,000  Level Chicago Center
09:34PM 41.2878 -87.5117 158° South 387 445 13,000  Level Chicago Center
09:35PM 41.1806 -87.4492 156° South 409 471 13,000  Level Chicago Center
09:36PM 41.0694 -87.3875 157° South 429 494 13,000  Level Chicago Center
09:37PM 40.9622 -87.3258 157° South 424 488 13,000  Level Chicago Center
09:38PM 40.8350 -87.2528 157° South 418 481 13,000  Level Chicago Center
09:39PM 40.7303 -87.1953 157° South 410 472 13,000  Level Chicago Center
09:40PM 40.6264 -87.1361 157° South 409 471 13,000  Level Chicago Center
09:41PM 40.5261 -87.0783 156° South 417 480 13,000  Level Chicago Center
09:42PM 40.4181 -87.0192 157° South 421 484 13,000  Level Chicago Center
09:43PM 40.2878 -86.9464 157° South 426 490 13,000  Level Chicago Center
09:44PM 40.1800 -86.8844 156° South 425 489 13,000 -180 Level Chicago Center
09:45PM 40.0950 -86.7747 135° Southeast 434 499 12,700 -900 Descending Chicago Center
09:46PM 40.0464 -86.7042 132° Southeast 429 494 11,500 -1,440 Descending Indianapolis Center
09:47PM 39.9692 -86.5919 132° Southeast 421 484 10,300 -1,140 Descending Indianapolis Center
09:48PM 39.9192 -86.4914 123° Southeast 354 407 9,200 -1,440 Descending Indianapolis Center
09:49PM 39.9161 -86.3739 92° East 326 375 7,400 -1,800 Descending Indianapolis Center
09:50PM 39.9067 -86.2622 96° East 311 358 5,600 -1,920 Descending Indianapolis Center
09:51PM 39.8447 -86.1969 141° Southeast 286 329 3,600 -1,620 Descending Indianapolis Center
09:52PM 39.7783 -86.2303 201° Southwest 231 266 2,300 -1,140 Descending Indianapolis Center
09:53PM 39.7478 -86.2686 224° Southwest 181 208 1,300 -1,020 Descending Indianapolis Center